Time;durP1;ratioP1;P1;durP2;ratioP2;P2;SDS_P1;SDS_P2;PMS_P1;PMS_P2;Temp;Humidity;BMP_temperature;BMP_pressure;BME280_temperature;BME280_humidity;BME280_pressure;Samples;Min_cycle;Max_cycle;Signal;HPM_P1;HPM_P2
2022/07/26 00:02:22;;;;;;;14.05;5.30;;;;;;;;;;5035304;28;20045;-71
2022/07/26 00:04:47;;;;;;;13.02;5.30;;;;;;;;;;5044101;28;20049;-73
2022/07/26 00:07:13;;;;;;;17.92;5.43;;;;;;;;;;5034837;28;20045;-72
2022/07/26 00:09:40;;;;;;;14.45;5.63;;;;;;;;;;5073549;28;20059;-72
2022/07/26 00:12:06;;;;;;;11.55;5.03;;;;;;;;;;5037276;28;20044;-72
2022/07/26 00:14:32;;;;;;;17.92;5.35;;;;;;;;;;5040189;28;20359;-72
2022/07/26 00:16:58;;;;;;;17.17;5.57;;;;;;;;;;5039866;28;20060;-73
2022/07/26 00:19:24;;;;;;;14.90;6.13;;;;;;;;;;5049219;28;20045;-73
2022/07/26 00:22:32;;;;;;;10.63;4.50;;;;;;;;;;5044161;28;20049;-71
2022/07/26 00:24:35;;;;;;;14.20;5.00;;;;;;;;;;5035554;28;20098;-72
2022/07/26 00:27:01;;;;;;;10.55;5.53;;;;;;;;;;5052113;28;20507;-74
2022/07/26 00:29:27;;;;;;;14.43;6.18;;;;;;;;;;5037331;28;20510;-74
2022/07/26 00:31:53;;;;;;;17.80;6.30;;;;;;;;;;5044583;28;20101;-72
2022/07/26 00:34:19;;;;;;;22.30;5.80;;;;;;;;;;5039023;28;20045;-73
2022/07/26 00:36:44;;;;;;;14.45;5.43;;;;;;;;;;5033428;28;20037;-71
2022/07/26 00:39:10;;;;;;;12.30;5.53;;;;;;;;;;5040874;28;20056;-72
2022/07/26 00:41:36;;;;;;;14.30;5.72;;;;;;;;;;5046538;28;20514;-72
2022/07/26 00:44:03;;;;;;;14.48;5.50;;;;;;;;;;5040198;28;20049;-72
2022/07/26 00:46:29;;;;;;;12.60;4.88;;;;;;;;;;5040107;28;20043;-71
2022/07/26 00:48:54;;;;;;;12.93;5.22;;;;;;;;;;5034314;28;20057;-72
2022/07/26 00:51:21;;;;;;;14.30;5.28;;;;;;;;;;5046752;28;20149;-71
2022/07/26 00:53:48;;;;;;;10.50;4.43;;;;;;;;;;5035037;28;20041;-72
2022/07/26 00:56:14;;;;;;;15.00;5.10;;;;;;;;;;5031441;28;20094;-72
2022/07/26 00:58:41;;;;;;;11.98;4.90;;;;;;;;;;5033147;28;20483;-73
2022/07/26 01:01:08;;;;;;;12.88;5.75;;;;;;;;;;5035172;28;20048;-72
2022/07/26 01:03:34;;;;;;;13.15;5.20;;;;;;;;;;5038686;28;20049;-72
2022/07/26 01:06:00;;;;;;;11.73;5.63;;;;;;;;;;5044787;28;20534;-71
2022/07/26 01:08:26;;;;;;;14.63;4.95;;;;;;;;;;5040585;28;20079;-71
2022/07/26 01:10:52;;;;;;;13.00;5.57;;;;;;;;;;5034745;28;20057;-72
2022/07/26 01:13:21;;;;;;;10.07;4.97;;;;;;;;;;5043551;28;20060;-72
2022/07/26 01:15:48;;;;;;;11.95;5.15;;;;;;;;;;5039796;28;20037;-71
2022/07/26 01:18:15;;;;;;;10.48;5.47;;;;;;;;;;5039787;28;20049;-73
2022/07/26 01:20:42;;;;;;;11.90;4.68;;;;;;;;;;5041884;28;20068;-74
2022/07/26 01:23:08;;;;;;;14.85;5.47;;;;;;;;;;5040874;28;20497;-72
2022/07/26 01:25:36;;;;;;;14.50;5.32;;;;;;;;;;5040107;28;20120;-72
2022/07/26 01:28:03;;;;;;;11.82;5.10;;;;;;;;;;5032371;28;20595;-71
2022/07/26 01:30:29;;;;;;;11.68;4.80;;;;;;;;;;5040123;28;20567;-73
2022/07/26 01:32:54;;;;;;;10.35;4.78;;;;;;;;;;5038786;28;20053;-73
2022/07/26 01:35:20;;;;;;;7.40;4.10;;;;;;;;;;5030802;28;20529;-73
2022/07/26 01:37:46;;;;;;;11.45;5.10;;;;;;;;;;5045103;28;20099;-73
2022/07/26 01:40:13;;;;;;;12.15;5.35;;;;;;;;;;5051203;28;20041;-70
2022/07/26 01:42:40;;;;;;;16.48;5.90;;;;;;;;;;5049440;28;20521;-73
2022/07/26 01:45:08;;;;;;;12.82;5.78;;;;;;;;;;5040812;28;20055;-73
2022/07/26 01:47:34;;;;;;;14.25;5.53;;;;;;;;;;5034003;28;20057;-72
2022/07/26 01:49:59;;;;;;;11.07;5.13;;;;;;;;;;5032334;28;20099;-73
2022/07/26 01:52:26;;;;;;;16.58;5.20;;;;;;;;;;5042675;28;20048;-72
2022/07/26 01:54:52;;;;;;;12.52;5.20;;;;;;;;;;5038827;28;20431;-71
2022/07/26 01:57:18;;;;;;;13.82;5.43;;;;;;;;;;5042581;28;20099;-72
2022/07/26 01:59:44;;;;;;;10.27;5.22;;;;;;;;;;5041597;28;20048;-72
2022/07/26 02:02:09;;;;;;;13.50;4.80;;;;;;;;;;5045201;28;20402;-71
2022/07/26 02:07:20;;;;;;;13.15;5.93;;;;;;;;;;5036761;28;20052;-73
2022/07/26 02:09:45;;;;;;;14.57;5.43;;;;;;;;;;5046552;28;20482;-72
2022/07/26 02:12:11;;;;;;;13.80;5.57;;;;;;;;;;5038071;28;20037;-73
2022/07/26 02:14:37;;;;;;;12.10;5.45;;;;;;;;;;5042473;28;20387;-72
2022/07/26 02:17:03;;;;;;;14.07;5.10;;;;;;;;;;5040520;28;20045;-71
2022/07/26 02:19:30;;;;;;;11.50;4.97;;;;;;;;;;5041760;28;20453;-72
2022/07/26 02:21:57;;;;;;;14.23;5.88;;;;;;;;;;5042184;28;20407;-73
2022/07/26 02:24:23;;;;;;;9.57;5.55;;;;;;;;;;5044326;28;20045;-72
2022/07/26 02:26:48;;;;;;;11.82;5.43;;;;;;;;;;5031512;28;20041;-72
2022/07/26 02:29:14;;;;;;;11.40;5.20;;;;;;;;;;5038859;28;20124;-71
2022/07/26 02:31:40;;;;;;;10.30;5.30;;;;;;;;;;5038443;28;20494;-71
2022/07/26 02:34:06;;;;;;;16.13;5.53;;;;;;;;;;5042067;28;20103;-71
2022/07/26 02:36:32;;;;;;;10.93;4.90;;;;;;;;;;5039881;28;20045;-71
2022/07/26 02:38:58;;;;;;;12.93;5.30;;;;;;;;;;5033894;28;20049;-71
2022/07/26 02:41:23;;;;;;;15.82;6.05;;;;;;;;;;5042017;28;20033;-72
2022/07/26 02:43:50;;;;;;;16.17;5.60;;;;;;;;;;5036826;28;20137;-73
2022/07/26 02:46:15;;;;;;;12.43;5.70;;;;;;;;;;5039686;28;20131;-72
2022/07/26 02:48:41;;;;;;;19.70;7.30;;;;;;;;;;5030605;28;20041;-72
2022/07/26 02:51:07;;;;;;;14.40;6.57;;;;;;;;;;5031112;28;20686;-71
2022/07/26 02:53:33;;;;;;;13.85;6.03;;;;;;;;;;5046292;28;20045;-71
2022/07/26 02:55:58;;;;;;;14.35;6.68;;;;;;;;;;5039758;28;20131;-73
2022/07/26 02:58:25;;;;;;;13.68;6.30;;;;;;;;;;5039691;28;20040;-71
2022/07/26 03:00:51;;;;;;;14.82;6.97;;;;;;;;;;5041374;28;20393;-72
2022/07/26 03:03:17;;;;;;;17.48;7.63;;;;;;;;;;5033849;28;20058;-72
2022/07/26 03:05:43;;;;;;;21.52;7.32;;;;;;;;;;5041085;28;20040;-72
2022/07/26 03:08:09;;;;;;;16.75;7.22;;;;;;;;;;5041784;28;20119;-72
2022/07/26 03:10:35;;;;;;;15.80;6.80;;;;;;;;;;5041598;28;20594;-73
2022/07/26 03:13:01;;;;;;;16.80;7.00;;;;;;;;;;5041258;28;20060;-74
2022/07/26 03:15:27;;;;;;;13.90;6.88;;;;;;;;;;5036787;28;20048;-73
2022/07/26 03:17:52;;;;;;;13.85;7.30;;;;;;;;;;5042317;28;20050;-72
2022/07/26 03:20:18;;;;;;;13.23;6.90;;;;;;;;;;5039599;28;20080;-72
2022/07/26 03:22:44;;;;;;;17.10;7.20;;;;;;;;;;5039278;28;20045;-74
2022/07/26 03:25:10;;;;;;;15.45;6.90;;;;;;;;;;5044782;28;20041;-73
2022/07/26 03:27:36;;;;;;;18.42;7.10;;;;;;;;;;5044481;28;20514;-72
2022/07/26 03:30:03;;;;;;;16.48;6.63;;;;;;;;;;5042941;28;21155;-73
2022/07/26 03:32:28;;;;;;;12.68;6.93;;;;;;;;;;5036519;28;20079;-72
2022/07/26 03:34:54;;;;;;;13.82;6.03;;;;;;;;;;5041432;28;20061;-71
2022/07/26 03:37:20;;;;;;;16.92;6.93;;;;;;;;;;5040549;28;20048;-72
2022/07/26 03:39:46;;;;;;;11.60;6.15;;;;;;;;;;5040838;28;20052;-73
2022/07/26 03:42:12;;;;;;;15.07;6.40;;;;;;;;;;5038018;28;20513;-72
2022/07/26 03:44:38;;;;;;;15.57;6.57;;;;;;;;;;5040537;28;20053;-70
2022/07/26 03:47:04;;;;;;;18.52;6.93;;;;;;;;;;5037579;28;20126;-72
2022/07/26 03:49:30;;;;;;;16.45;6.70;;;;;;;;;;5041423;28;20049;-72
2022/07/26 03:51:56;;;;;;;19.63;6.90;;;;;;;;;;5039918;28;20061;-73
2022/07/26 03:54:21;;;;;;;12.32;6.38;;;;;;;;;;5044006;28;20060;-73
2022/07/26 03:56:48;;;;;;;14.02;7.32;;;;;;;;;;5040295;28;20046;-72
2022/07/26 03:59:14;;;;;;;12.48;6.18;;;;;;;;;;5044704;28;20128;-75
2022/07/26 04:01:41;;;;;;;16.88;6.97;;;;;;;;;;5036958;28;20080;-76
2022/07/26 04:04:12;;;;;;;14.68;6.82;;;;;;;;;;5039784;28;20057;-72
2022/07/26 04:06:39;;;;;;;12.98;6.80;;;;;;;;;;5042287;28;20540;-72
2022/07/26 04:09:06;;;;;;;17.90;6.68;;;;;;;;;;5040408;28;20060;-73
2022/07/26 04:11:33;;;;;;;15.70;7.05;;;;;;;;;;5039999;28;20453;-74
2022/07/26 04:14:00;;;;;;;10.38;6.43;;;;;;;;;;5074399;28;20053;-73
2022/07/26 04:16:26;;;;;;;14.05;6.35;;;;;;;;;;5039696;28;20779;-72
2022/07/26 04:18:53;;;;;;;15.07;6.55;;;;;;;;;;5038248;28;20056;-73
2022/07/26 04:21:19;;;;;;;18.20;7.00;;;;;;;;;;5039035;28;20049;-72
2022/07/26 04:23:45;;;;;;;11.60;6.07;;;;;;;;;;5042652;28;20083;-72
2022/07/26 04:26:12;;;;;;;18.30;7.20;;;;;;;;;;5045069;28;20465;-73
2022/07/26 04:28:40;;;;;;;12.73;5.65;;;;;;;;;;5040266;28;20713;-72
2022/07/26 04:31:05;;;;;;;14.15;6.07;;;;;;;;;;5038722;28;20458;-69
2022/07/26 04:33:32;;;;;;;12.55;5.53;;;;;;;;;;5037405;28;20052;-73
2022/07/26 04:35:58;;;;;;;15.45;5.70;;;;;;;;;;5043500;28;20419;-71
2022/07/26 04:38:24;;;;;;;11.10;5.00;;;;;;;;;;5040814;28;20110;-72
2022/07/26 04:40:51;;;;;;;11.05;5.10;;;;;;;;;;5035183;28;20064;-72
2022/07/26 04:43:18;;;;;;;15.18;5.50;;;;;;;;;;5043277;28;20048;-72
2022/07/26 04:45:45;;;;;;;15.23;5.53;;;;;;;;;;5040979;28;20049;-72
2022/07/26 04:48:12;;;;;;;15.38;5.85;;;;;;;;;;5045380;28;20057;-74
2022/07/26 04:50:37;;;;;;;16.02;5.80;;;;;;;;;;5045461;28;20049;-69
2022/07/26 04:53:03;;;;;;;18.83;6.13;;;;;;;;;;5041842;28;20544;-72
2022/07/26 04:55:29;;;;;;;14.43;5.97;;;;;;;;;;5047719;28;20068;-71
2022/07/26 04:57:55;;;;;;;16.52;5.70;;;;;;;;;;5044793;28;20457;-72
2022/07/26 05:00:25;;;;;;;11.85;5.25;;;;;;;;;;5044786;28;20046;-71
2022/07/26 05:02:53;;;;;;;16.65;5.30;;;;;;;;;;5039889;28;20055;-71
2022/07/26 05:05:19;;;;;;;14.65;5.50;;;;;;;;;;5043801;28;20057;-72
2022/07/26 05:07:48;;;;;;;9.38;5.22;;;;;;;;;;5045578;28;20068;-74
2022/07/26 05:10:16;;;;;;;13.27;5.32;;;;;;;;;;5042320;28;20114;-72
2022/07/26 05:12:42;;;;;;;15.13;6.00;;;;;;;;;;5043452;28;20049;-71
2022/07/26 05:15:08;;;;;;;11.65;6.10;;;;;;;;;;5037887;28;20052;-69
2022/07/26 05:17:37;;;;;;;13.73;5.05;;;;;;;;;;5043132;28;20060;-65
2022/07/26 05:20:03;;;;;;;12.55;5.93;;;;;;;;;;5042538;28;20128;-67
2022/07/26 05:22:29;;;;;;;12.73;5.00;;;;;;;;;;5041319;28;20053;-66
2022/07/26 05:24:55;;;;;;;9.02;5.07;;;;;;;;;;5043742;28;20118;-68
2022/07/26 05:27:21;;;;;;;12.18;5.45;;;;;;;;;;5041028;28;20045;-68
2022/07/26 05:29:47;;;;;;;13.70;5.45;;;;;;;;;;5040281;28;20043;-67
2022/07/26 05:32:13;;;;;;;16.52;5.47;;;;;;;;;;5042831;28;20049;-67
2022/07/26 05:34:38;;;;;;;16.98;6.20;;;;;;;;;;5040843;28;20537;-66
2022/07/26 05:37:04;;;;;;;15.60;6.28;;;;;;;;;;5042486;28;20041;-68
2022/07/26 05:39:30;;;;;;;17.98;6.15;;;;;;;;;;5045287;28;20060;-67
2022/07/26 05:41:56;;;;;;;19.80;6.20;;;;;;;;;;5040232;28;20060;-66
2022/07/26 05:44:23;;;;;;;17.13;5.05;;;;;;;;;;5039745;28;20045;-65
2022/07/26 05:46:49;;;;;;;10.95;5.22;;;;;;;;;;5041945;28;20051;-65
2022/07/26 05:49:15;;;;;;;13.55;5.97;;;;;;;;;;5040816;28;20048;-68
2022/07/26 05:51:41;;;;;;;14.18;5.53;;;;;;;;;;5038842;28;20599;-65
2022/07/26 05:54:07;;;;;;;15.45;6.32;;;;;;;;;;5040889;28;20110;-66
2022/07/26 05:56:33;;;;;;;15.45;5.78;;;;;;;;;;5036741;28;20053;-65
2022/07/26 05:58:59;;;;;;;18.70;5.68;;;;;;;;;;5035593;28;20462;-66
2022/07/26 06:01:25;;;;;;;19.13;5.63;;;;;;;;;;5032779;28;20360;-69
2022/07/26 06:03:51;;;;;;;17.70;5.82;;;;;;;;;;5035801;28;20033;-66
2022/07/26 06:06:16;;;;;;;17.20;5.82;;;;;;;;;;5038207;28;20056;-67
2022/07/26 06:08:42;;;;;;;17.08;5.50;;;;;;;;;;5038518;28;20064;-65
2022/07/26 06:11:08;;;;;;;13.90;5.53;;;;;;;;;;5041231;28;20064;-66
2022/07/26 06:13:34;;;;;;;15.95;6.00;;;;;;;;;;5036822;28;20517;-64
2022/07/26 06:16:00;;;;;;;16.27;5.85;;;;;;;;;;5039298;28;20045;-67
2022/07/26 06:18:26;;;;;;;15.02;5.60;;;;;;;;;;5032495;28;20069;-66
2022/07/26 06:20:52;;;;;;;14.20;5.30;;;;;;;;;;5029466;28;20380;-65
2022/07/26 06:23:18;;;;;;;9.10;4.95;;;;;;;;;;5032600;28;20102;-68
2022/07/26 06:25:43;;;;;;;9.73;4.97;;;;;;;;;;5033873;28;20049;-66
2022/07/26 06:28:10;;;;;;;11.52;4.95;;;;;;;;;;5032671;28;20087;-66
2022/07/26 06:30:37;;;;;;;16.05;5.43;;;;;;;;;;5034606;28;20041;-67
2022/07/26 06:33:03;;;;;;;10.82;5.13;;;;;;;;;;5038687;28;20081;-66
2022/07/26 06:35:30;;;;;;;11.90;5.10;;;;;;;;;;5040812;28;20037;-65
2022/07/26 06:37:58;;;;;;;12.77;4.78;;;;;;;;;;5032399;28;20054;-65
2022/07/26 06:40:25;;;;;;;13.82;4.90;;;;;;;;;;5040204;28;20052;-65
2022/07/26 06:42:51;;;;;;;14.57;5.07;;;;;;;;;;5035566;28;20045;-66
2022/07/26 06:45:17;;;;;;;13.68;5.22;;;;;;;;;;5033911;28;20509;-67
2022/07/26 06:47:43;;;;;;;15.35;5.00;;;;;;;;;;5037010;28;20493;-67
2022/07/26 06:50:09;;;;;;;12.88;4.85;;;;;;;;;;5028248;28;20174;-67
2022/07/26 06:52:35;;;;;;;9.73;4.60;;;;;;;;;;5041084;28;20059;-67
2022/07/26 06:55:02;;;;;;;12.60;5.20;;;;;;;;;;5031967;28;20132;-66
2022/07/26 06:57:28;;;;;;;12.80;4.57;;;;;;;;;;5032114;28;20112;-67
2022/07/26 06:59:54;;;;;;;12.55;4.82;;;;;;;;;;5042824;28;20049;-67
2022/07/26 07:02:20;;;;;;;14.00;4.97;;;;;;;;;;5066606;28;20560;-68
2022/07/26 07:04:46;;;;;;;16.17;4.43;;;;;;;;;;5047077;28;20049;-68
2022/07/26 07:07:12;;;;;;;15.43;4.45;;;;;;;;;;5043277;28;20033;-66
2022/07/26 07:09:38;;;;;;;12.48;3.80;;;;;;;;;;5035673;28;20045;-67
2022/07/26 07:12:05;;;;;;;14.23;3.95;;;;;;;;;;5038976;28;20075;-66
2022/07/26 07:14:32;;;;;;;19.30;4.88;;;;;;;;;;5039071;28;20057;-67
2022/07/26 07:16:58;;;;;;;15.13;4.80;;;;;;;;;;5041250;28;20049;-69
2022/07/26 07:19:24;;;;;;;12.70;4.88;;;;;;;;;;5046958;28;20414;-65
2022/07/26 07:21:50;;;;;;;13.15;4.43;;;;;;;;;;5042373;28;20049;-70
2022/07/26 07:24:17;;;;;;;12.40;4.43;;;;;;;;;;5042930;28;20044;-69
2022/07/26 07:26:43;;;;;;;14.63;4.57;;;;;;;;;;5041623;28;20065;-67
2022/07/26 07:29:13;;;;;;;18.33;4.90;;;;;;;;;;5033590;28;20123;-67
2022/07/26 07:31:44;;;;;;;13.93;4.20;;;;;;;;;;5044626;28;20448;-68
2022/07/26 07:34:10;;;;;;;13.10;3.97;;;;;;;;;;5042168;28;20483;-68
2022/07/26 07:36:35;;;;;;;16.42;5.00;;;;;;;;;;5045023;28;20052;-67
2022/07/26 07:39:01;;;;;;;15.63;4.70;;;;;;;;;;5031906;28;20052;-66
2022/07/26 07:41:27;;;;;;;24.30;5.80;;;;;;;;;;5028315;28;20040;-65
2022/07/26 07:43:53;;;;;;;17.60;4.68;;;;;;;;;;5043220;28;20128;-68
2022/07/26 07:46:19;;;;;;;7.97;3.42;;;;;;;;;;5040316;28;20102;-67
2022/07/26 07:48:45;;;;;;;11.77;3.13;;;;;;;;;;5041614;28;20064;-66
2022/07/26 07:51:11;;;;;;;8.10;3.10;;;;;;;;;;5038441;28;20407;-67
2022/07/26 07:53:36;;;;;;;10.45;2.80;;;;;;;;;;5034671;28;20084;-65
2022/07/26 07:56:03;;;;;;;6.50;2.90;;;;;;;;;;5040297;28;20045;-68
2022/07/26 07:58:29;;;;;;;9.25;2.75;;;;;;;;;;5037874;28;20049;-69
2022/07/26 08:00:54;;;;;;;11.82;3.50;;;;;;;;;;5046964;28;20040;-68
2022/07/26 08:03:20;;;;;;;10.23;4.82;;;;;;;;;;5046550;28;20056;-68
2022/07/26 08:05:47;;;;;;;13.13;3.40;;;;;;;;;;5045467;28;20042;-68
2022/07/26 08:08:13;;;;;;;9.43;3.25;;;;;;;;;;5038184;28;20196;-66
2022/07/26 08:10:39;;;;;;;13.27;4.10;;;;;;;;;;5035106;28;20435;-66
2022/07/26 08:13:05;;;;;;;8.32;3.10;;;;;;;;;;5049648;28;20495;-66
2022/07/26 08:15:31;;;;;;;9.07;2.90;;;;;;;;;;5049913;28;20049;-67
2022/07/26 08:17:57;;;;;;;17.50;3.42;;;;;;;;;;5051599;28;20049;-66
2022/07/26 08:20:23;;;;;;;8.82;3.38;;;;;;;;;;5040643;28;20053;-64
2022/07/26 08:22:49;;;;;;;6.43;3.30;;;;;;;;;;5048836;28;20053;-65
2022/07/26 08:25:15;;;;;;;8.60;3.53;;;;;;;;;;5047738;28;20075;-66
2022/07/26 08:27:41;;;;;;;8.93;3.25;;;;;;;;;;5043080;28;20044;-64
2022/07/26 08:30:07;;;;;;;9.90;3.42;;;;;;;;;;5038063;28;20045;-63
2022/07/26 08:32:33;;;;;;;9.23;3.28;;;;;;;;;;5049155;28;20056;-66
2022/07/26 08:34:59;;;;;;;5.60;2.95;;;;;;;;;;5041527;28;20044;-64
2022/07/26 08:37:25;;;;;;;8.18;3.80;;;;;;;;;;5051260;28;20409;-66
2022/07/26 08:39:51;;;;;;;8.68;3.10;;;;;;;;;;5047502;28;20045;-68
2022/07/26 08:42:19;;;;;;;14.13;3.58;;;;;;;;;;5049583;28;20120;-63
2022/07/26 08:44:46;;;;;;;8.73;2.85;;;;;;;;;;5077686;28;20037;-63
2022/07/26 08:47:13;;;;;;;10.07;3.17;;;;;;;;;;5045500;28;20393;-65
2022/07/26 08:49:40;;;;;;;7.15;3.33;;;;;;;;;;5046968;28;20041;-67
2022/07/26 08:52:07;;;;;;;10.13;3.80;;;;;;;;;;5040725;28;20049;-67
2022/07/26 08:54:34;;;;;;;11.07;3.45;;;;;;;;;;5040425;28;20049;-67
2022/07/26 08:56:59;;;;;;;10.45;3.42;;;;;;;;;;5047959;28;20044;-70
2022/07/26 08:59:26;;;;;;;12.40;2.70;;;;;;;;;;5038377;28;20413;-68
2022/07/26 09:02:04;;;;;;;6.80;3.08;;;;;;;;;;5041329;28;20067;-69
2022/07/26 09:04:35;;;;;;;9.57;3.38;;;;;;;;;;5043359;28;20041;-68
2022/07/26 09:07:01;;;;;;;14.27;3.60;;;;;;;;;;5044816;28;20060;-68
2022/07/26 09:09:28;;;;;;;12.35;3.42;;;;;;;;;;5038174;28;20037;-70
2022/07/26 09:11:55;;;;;;;9.07;3.03;;;;;;;;;;5044617;28;20052;-67
2022/07/26 09:14:22;;;;;;;9.52;3.78;;;;;;;;;;5044412;28;20738;-68
2022/07/26 09:16:58;;;;;;;10.63;3.13;;;;;;;;;;5042186;28;20052;-66
2022/07/26 09:19:26;;;;;;;14.50;3.55;;;;;;;;;;5048356;28;20090;-66
2022/07/26 09:21:52;;;;;;;5.50;2.78;;;;;;;;;;5034250;28;20044;-68
2022/07/26 09:24:36;;;;;;;10.05;3.33;;;;;;;;;;5041691;28;20116;-68
2022/07/26 09:27:04;;;;;;;7.80;2.70;;;;;;;;;;5032244;28;20037;-67
2022/07/26 09:29:45;;;;;;;7.57;3.15;;;;;;;;;;5033749;28;20045;-67
2022/07/26 09:32:19;;;;;;;10.15;3.15;;;;;;;;;;5030082;28;20057;-67
2022/07/26 09:34:48;;;;;;;9.32;3.00;;;;;;;;;;5029972;28;20073;-67
2022/07/26 09:37:14;;;;;;;12.80;2.90;;;;;;;;;;5038678;28;20041;-67
2022/07/26 09:39:58;;;;;;;8.45;2.65;;;;;;;;;;5032721;28;20449;-69
2022/07/26 09:42:27;;;;;;;10.38;3.20;;;;;;;;;;5034515;28;20073;-66
2022/07/26 09:44:56;;;;;;;6.32;2.85;;;;;;;;;;5042306;28;20490;-66
2022/07/26 09:47:34;;;;;;;13.38;3.58;;;;;;;;;;5032125;28;20047;-67
2022/07/26 09:50:13;;;;;;;8.23;2.83;;;;;;;;;;5039095;28;20079;-67
2022/07/26 09:52:39;;;;;;;10.18;3.10;;;;;;;;;;5048415;28;20049;-68
2022/07/26 09:55:07;;;;;;;10.38;2.90;;;;;;;;;;5045403;28;20194;-66
2022/07/26 09:57:34;;;;;;;6.78;2.80;;;;;;;;;;5042417;28;20525;-66
2022/07/26 10:00:05;;;;;;;12.68;2.75;;;;;;;;;;5040105;28;20045;-67
2022/07/26 10:02:31;;;;;;;7.22;2.88;;;;;;;;;;5029366;28;20049;-67
2022/07/26 10:04:57;;;;;;;11.25;2.97;;;;;;;;;;5039479;28;20048;-66
2022/07/26 10:07:23;;;;;;;7.15;3.00;;;;;;;;;;5037127;28;20104;-70
2022/07/26 10:10:11;;;;;;;8.00;2.78;;;;;;;;;;5036770;28;20052;-68
2022/07/26 10:12:37;;;;;;;6.22;2.80;;;;;;;;;;5040044;28;20083;-68
2022/07/26 10:15:04;;;;;;;9.73;2.83;;;;;;;;;;5029716;28;20047;-67
2022/07/26 10:17:32;;;;;;;10.05;2.83;;;;;;;;;;5048201;28;20147;-66
2022/07/26 10:20:05;;;;;;;6.93;2.45;;;;;;;;;;5042011;28;20049;-68
2022/07/26 10:22:34;;;;;;;6.32;2.95;;;;;;;;;;5045211;28;20048;-66
2022/07/26 10:25:17;;;;;;;7.28;2.80;;;;;;;;;;5039541;28;20037;-68
2022/07/26 10:27:51;;;;;;;11.73;3.30;;;;;;;;;;5030113;28;20107;-67
2022/07/26 10:30:17;;;;;;;12.25;2.83;;;;;;;;;;5040715;28;20076;-68
2022/07/26 10:33:00;;;;;;;13.38;3.10;;;;;;;;;;5043312;28;20100;-69
2022/07/26 10:35:39;;;;;;;8.55;2.33;;;;;;;;;;5038398;28;20047;-69
2022/07/26 10:38:10;;;;;;;6.70;2.88;;;;;;;;;;5029621;28;20717;-68
2022/07/26 10:40:39;;;;;;;5.53;2.33;;;;;;;;;;5039881;28;20429;-70
2022/07/26 10:43:11;;;;;;;10.55;2.88;;;;;;;;;;5040566;28;20124;-69
2022/07/26 10:45:37;;;;;;;10.80;2.58;;;;;;;;;;5044351;28;20045;-68
2022/07/26 10:48:13;;;;;;;12.63;3.10;;;;;;;;;;5031366;28;20037;-69
2022/07/26 10:50:44;;;;;;;10.80;2.92;;;;;;;;;;5042058;28;20051;-70
2022/07/26 10:53:23;;;;;;;9.65;2.60;;;;;;;;;;5030673;28;20060;-68
2022/07/26 10:55:54;;;;;;;8.82;2.50;;;;;;;;;;5036359;28;20049;-68
2022/07/26 10:58:22;;;;;;;7.53;2.65;;;;;;;;;;5031284;28;20056;-68
2022/07/26 11:01:03;;;;;;;9.98;2.50;;;;;;;;;;5035894;28;20418;-67
2022/07/26 11:03:39;;;;;;;12.38;3.33;;;;;;;;;;5034039;28;20046;-65
2022/07/26 11:06:27;;;;;;;9.57;2.78;;;;;;;;;;5048046;28;20111;-68
2022/07/26 11:08:54;;;;;;;8.13;2.72;;;;;;;;;;5031940;28;20055;-66
2022/07/26 11:11:28;;;;;;;9.55;2.92;;;;;;;;;;5032049;28;20053;-66
2022/07/26 11:14:09;;;;;;;7.07;3.03;;;;;;;;;;5029553;28;20053;-67
2022/07/26 11:16:43;;;;;;;7.78;2.30;;;;;;;;;;5030150;28;20229;-69
2022/07/26 11:19:28;;;;;;;10.85;2.88;;;;;;;;;;5039128;28;20053;-67
2022/07/26 11:21:59;;;;;;;13.57;2.95;;;;;;;;;;5048433;28;20051;-69
2022/07/26 11:24:25;;;;;;;9.82;2.80;;;;;;;;;;5037560;28;20045;-68
2022/07/26 11:26:51;;;;;;;6.68;2.53;;;;;;;;;;5047136;28;20080;-70
2022/07/26 11:29:33;;;;;;;8.63;2.70;;;;;;;;;;5040451;28;20044;-67
2022/07/26 11:32:00;;;;;;;10.60;2.70;;;;;;;;;;5041866;28;20060;-67
2022/07/26 11:34:28;;;;;;;7.38;2.47;;;;;;;;;;5036219;28;20048;-67
2022/07/26 11:36:57;;;;;;;6.22;2.50;;;;;;;;;;5032264;28;20053;-67
2022/07/26 11:39:24;;;;;;;9.15;2.53;;;;;;;;;;5045683;28;20053;-72
2022/07/26 11:41:57;;;;;;;6.93;2.75;;;;;;;;;;5042000;28;20518;-67
2022/07/26 11:44:23;;;;;;;9.73;2.60;;;;;;;;;;5032034;28;20499;-68
2022/07/26 11:46:50;;;;;;;7.75;2.55;;;;;;;;;;5034345;28;20042;-67
2022/07/26 11:49:21;;;;;;;10.88;2.88;;;;;;;;;;5035905;28;20516;-67
2022/07/26 11:51:58;;;;;;;16.15;2.92;;;;;;;;;;5033593;28;20241;-67
2022/07/26 11:54:26;;;;;;;8.43;2.40;;;;;;;;;;5042223;28;20499;-65
2022/07/26 11:57:03;;;;;;;8.63;3.13;;;;;;;;;;5033018;28;20060;-67
2022/07/26 11:59:36;;;;;;;9.75;3.03;;;;;;;;;;5040788;28;20077;-68
2022/07/26 12:02:05;;;;;;;11.60;3.35;;;;;;;;;;5040410;28;20049;-66
2022/07/26 12:04:39;;;;;;;9.38;2.92;;;;;;;;;;5034992;28;20060;-66
2022/07/26 12:07:09;;;;;;;;;;;;;;;;;;5054524;28;20044;-65
2022/07/26 12:09:40;;;;;;;5.93;2.70;;;;;;;;;;5047486;28;19928;-66
2022/07/26 12:12:19;;;;;;;10.55;2.42;;;;;;;;;;5044900;28;20101;-66
2022/07/26 12:14:58;;;;;;;7.15;2.90;;;;;;;;;;5036543;28;20157;-67
2022/07/26 12:17:25;;;;;;;13.90;3.25;;;;;;;;;;5045661;28;20386;-66
2022/07/26 12:19:51;;;;;;;8.77;2.97;;;;;;;;;;5045233;28;20040;-69
2022/07/26 12:22:21;;;;;;;10.18;2.55;;;;;;;;;;5043818;28;20132;-66
2022/07/26 12:24:50;;;;;;;14.55;3.28;;;;;;;;;;5042673;28;20291;-66
2022/07/26 12:27:20;;;;;;;9.40;2.50;;;;;;;;;;5042630;28;20053;-67
2022/07/26 12:29:49;;;;;;;10.82;2.88;;;;;;;;;;5040357;28;20052;-67
2022/07/26 12:32:32;;;;;;;10.43;3.00;;;;;;;;;;5048398;28;20494;-68
2022/07/26 12:35:07;;;;;;;10.20;2.95;;;;;;;;;;5040202;28;20046;-65
2022/07/26 12:37:52;;;;;;;9.40;3.05;;;;;;;;;;5038328;28;20311;-69
2022/07/26 12:40:22;;;;;;;13.15;2.88;;;;;;;;;;5031122;28;20562;-66
2022/07/26 12:42:51;;;;;;;10.80;3.30;;;;;;;;;;5044512;28;20049;-66
2022/07/26 12:45:18;;;;;;;10.32;2.80;;;;;;;;;;5031363;28;20053;-67
2022/07/26 12:47:48;;;;;;;8.35;2.83;;;;;;;;;;5048676;28;20045;-66
2022/07/26 12:50:17;;;;;;;7.28;2.33;;;;;;;;;;5038798;28;20041;-66
2022/07/26 12:52:43;;;;;;;11.15;3.00;;;;;;;;;;5042852;28;20044;-66
2022/07/26 12:55:13;;;;;;;10.45;3.17;;;;;;;;;;5046422;28;20052;-66
2022/07/26 12:57:40;;;;;;;14.32;3.10;;;;;;;;;;5044769;28;20041;-66
2022/07/26 13:00:08;;;;;;;9.77;2.50;;;;;;;;;;5040091;28;20049;-67
2022/07/26 13:02:36;;;;;;;14.50;3.00;;;;;;;;;;5030978;28;20041;-68
2022/07/26 13:05:03;;;;;;;8.18;2.55;;;;;;;;;;5041016;28;20057;-66
2022/07/26 13:07:29;;;;;;;9.05;2.88;;;;;;;;;;5035160;28;20061;-67
2022/07/26 13:09:55;;;;;;;12.80;2.92;;;;;;;;;;5035523;28;20045;-66
2022/07/26 13:12:21;;;;;;;13.00;2.80;;;;;;;;;;5048569;28;20526;-71
2022/07/26 13:14:48;;;;;;;12.45;2.70;;;;;;;;;;5039242;28;20045;-71
2022/07/26 13:17:14;;;;;;;10.85;2.95;;;;;;;;;;5040836;28;20037;-73
2022/07/26 13:19:40;;;;;;;10.75;3.08;;;;;;;;;;5053828;28;20052;-70
2022/07/26 13:22:07;;;;;;;8.15;3.00;;;;;;;;;;5050839;28;20064;-69
2022/07/26 13:24:34;;;;;;;12.68;2.85;;;;;;;;;;5046331;28;20059;-68
2022/07/26 13:27:01;;;;;;;10.20;2.80;;;;;;;;;;5043238;28;20396;-70
2022/07/26 13:29:27;;;;;;;14.43;2.80;;;;;;;;;;5036945;28;20042;-70
2022/07/26 13:31:54;;;;;;;14.18;3.22;;;;;;;;;;5050026;28;20542;-69
2022/07/26 13:34:23;;;;;;;11.13;3.08;;;;;;;;;;5033699;28;20483;-69
2022/07/26 13:36:49;;;;;;;10.02;3.03;;;;;;;;;;5034255;28;20080;-70
2022/07/26 13:39:16;;;;;;;13.18;3.05;;;;;;;;;;5037658;28;20053;-69
2022/07/26 13:41:42;;;;;;;9.73;2.80;;;;;;;;;;5042174;28;20041;-69
2022/07/26 13:44:08;;;;;;;14.70;3.28;;;;;;;;;;5037755;28;20056;-74
2022/07/26 13:46:34;;;;;;;14.32;3.10;;;;;;;;;;5036138;28;20049;-68
2022/07/26 13:49:02;;;;;;;9.63;3.15;;;;;;;;;;5037153;28;20042;-70
2022/07/26 13:54:16;;;;;;;15.05;3.40;;;;;;;;;;5042228;28;20052;-71
2022/07/26 13:56:43;;;;;;;12.45;3.03;;;;;;;;;;5040843;28;20068;-71
2022/07/26 13:59:10;;;;;;;13.52;3.33;;;;;;;;;;5036583;28;20114;-69
2022/07/26 14:01:37;;;;;;;14.20;3.42;;;;;;;;;;5050497;28;20059;-72
2022/07/26 14:04:04;;;;;;;9.88;3.00;;;;;;;;;;5047270;28;20111;-68
2022/07/26 14:06:30;;;;;;;12.80;3.17;;;;;;;;;;5045014;28;20449;-69
2022/07/26 14:08:57;;;;;;;10.38;3.60;;;;;;;;;;5043722;28;20049;-68
2022/07/26 14:11:24;;;;;;;16.30;4.10;;;;;;;;;;5034482;28;20049;-69
2022/07/26 14:13:51;;;;;;;11.23;3.13;;;;;;;;;;5048100;28;20053;-69
2022/07/26 14:16:17;;;;;;;12.05;3.40;;;;;;;;;;5049126;28;20045;-70
2022/07/26 14:18:43;;;;;;;12.73;3.13;;;;;;;;;;5035123;28;20619;-69
2022/07/26 14:21:08;;;;;;;13.48;3.45;;;;;;;;;;5036730;28;20061;-69
2022/07/26 14:23:35;;;;;;;15.65;3.67;;;;;;;;;;5034383;28;20045;-70
2022/07/26 14:26:00;;;;;;;13.38;3.40;;;;;;;;;;5030216;28;20566;-69
2022/07/26 14:28:26;;;;;;;12.68;3.63;;;;;;;;;;5046835;28;20420;-69
2022/07/26 14:30:52;;;;;;;10.55;3.15;;;;;;;;;;5046313;28;20049;-70
2022/07/26 14:33:18;;;;;;;9.70;3.30;;;;;;;;;;5030533;28;20053;-69
2022/07/26 14:35:45;;;;;;;11.07;3.08;;;;;;;;;;5029479;28;20045;-69
2022/07/26 14:38:11;;;;;;;12.13;3.40;;;;;;;;;;5032466;28;20053;-68
2022/07/26 14:40:39;;;;;;;15.23;3.33;;;;;;;;;;5036642;28;20411;-71
2022/07/26 14:43:05;;;;;;;14.70;3.10;;;;;;;;;;5031409;28;20060;-72